Private Wetterstation Wechselburg
Wetterdaten: Montag, 13.10.2014
Datum Zeit Temp. +2m Bodentemp. Temp.+5cm Temp. Wind Windchill X Diff Temp. Feuchte +2m Feuchte +5cm Sonnenschein Luftdruck Regen Wind Richtung Richtung Sonnenschein UV Taupunkt Windchill Windben
13.10.2014 00:00 13,2 C 26,7 C 13,7 C 13,8 C 13,8 C 0,6 C 85 % 88 % 0 % 1011,8 hPa 0,0 l/m 3,9 km/h (1 Bft) O 90 0 min 0,0 UV-I 10,7 C 13,8 C 3,4 km/h (1 Bft)
13.10.2014 00:05 13,1 C 26,7 C 13,7 C 13,8 C 13,8 C 0,7 C 85 % 88 % 0 % 1011,8 hPa 0,0 l/m 3,2 km/h (1 Bft) O-SO 112 0 min 0,0 UV-I 10,6 C 13,8 C 1,6 km/h (1 Bft)
13.10.2014 00:10 13,1 C 26,7 C 13,6 C 13,8 C 13,8 C 0,7 C 85 % 88 % 0 % 1011,6 hPa 0,0 l/m 2,6 km/h (1 Bft) O 90 0 min 0,0 UV-I 10,6 C 13,8 C 2,4 km/h (1 Bft)
13.10.2014 00:15 13,1 C 26,7 C 13,6 C 13,8 C 13,8 C 0,7 C 85 % 88 % 0 % 1011,6 hPa 0,0 l/m 2,6 km/h (1 Bft) O-NO 67 0 min 0,0 UV-I 10,6 C 13,8 C 2,7 km/h (1 Bft)
13.10.2014 00:20 13,1 C 26,7 C 13,6 C 13,7 C 13,7 C 0,6 C 85 % 88 % 0 % 1011,6 hPa 0,0 l/m 1,3 km/h (1 Bft) S-SO 157 0 min 0,0 UV-I 10,6 C 13,7 C 0,0 km/h (0 Bft)
13.10.2014 00:25 13,0 C 26,7 C 13,5 C 13,6 C 13,6 C 0,6 C 85 % 88 % 0 % 1011,6 hPa 0,0 l/m 0,3 km/h (0 Bft) N-NW 337 0 min 0,0 UV-I 10,5 C 13,6 C 5,0 km/h (1 Bft)
13.10.2014 00:30 12,9 C 26,7 C 13,5 C 13,5 C 13,5 C 0,6 C 85 % 89 % 0 % 1011,4 hPa 0,0 l/m 0,0 km/h (0 Bft) N-NO 22 0 min 0,0 UV-I 10,4 C 13,5 C 0,0 km/h (0 Bft)
13.10.2014 00:35 12,9 C 26,7 C 13,5 C 13,4 C 13,4 C 0,5 C 86 % 89 % 0 % 1011,4 hPa 0,0 l/m 0,3 km/h (0 Bft) N-NW 337 0 min 0,0 UV-I 10,6 C 13,4 C 1,9 km/h (1 Bft)
13.10.2014 00:42 12,7 C 26,8 C 13,4 C 13,3 C 13,3 C 0,6 C 86 % 88 % 0 % 1011,4 hPa 0,0 l/m 0,3 km/h (0 Bft) N 0 0 min 0,0 UV-I 10,4 C 13,3 C 0,0 km/h (0 Bft)
13.10.2014 00:50 12,7 C 26,8 C 13,2 C 13,1 C 13,1 C 0,4 C 86 % 88 % 0 % 1011,4 hPa 0,0 l/m 0,0 km/h (0 Bft) SO 135 0 min 0,0 UV-I 10,4 C 13,1 C 0,0 km/h (0 Bft)
13.10.2014 00:55 12,5 C 26,8 C 13,2 C 13,0 C 13,0 C 0,5 C 86 % 88 % 0 % 1011,4 hPa 0,0 l/m 0,0 km/h (0 Bft) O-NO 67 0 min 0,0 UV-I 10,2 C 13,0 C 0,0 km/h (0 Bft)
13.10.2014 01:00 12,4 C 26,8 C 13,1 C 12,8 C 12,8 C 0,4 C 86 % 89 % 0 % 1011,4 hPa 0,0 l/m 0,0 km/h (0 Bft) O-NO 67 0 min 0,0 UV-I 10,1 C 12,8 C 0,0 km/h (0 Bft)
13.10.2014 01:05 12,4 C 26,8 C 13,1 C 12,7 C 12,7 C 0,3 C 86 % 89 % 0 % 1011,4 hPa 0,0 l/m 0,0 km/h (0 Bft) W 270 0 min 0,0 UV-I 10,1 C 12,7 C 0,0 km/h (0 Bft)
13.10.2014 01:10 12,3 C 26,8 C 12,9 C 12,5 C 12,5 C 0,2 C 86 % 89 % 0 % 1011,6 hPa 0,0 l/m 0,0 km/h (0 Bft) NO 45 0 min 0,0 UV-I 10,0 C 12,5 C 0,0 km/h (0 Bft)
13.10.2014 01:15 12,3 C 26,8 C 12,9 C 12,4 C 12,4 C 0,1 C 87 % 89 % 0 % 1011,6 hPa 0,0 l/m 0,0 km/h (0 Bft) O-NO 67 0 min 0,0 UV-I 10,2 C 12,4 C 0,0 km/h (0 Bft)
13.10.2014 01:20 12,1 C 26,9 C 12,8 C 12,3 C 12,3 C 0,2 C 87 % 89 % 0 % 1011,6 hPa 0,0 l/m 0,2 km/h (0 Bft) O-NO 67 0 min 0,0 UV-I 10,0 C 12,3 C 1,9 km/h (1 Bft)
13.10.2014 01:25 12,1 C 26,8 C 12,9 C 12,5 C 12,5 C 0,4 C 87 % 89 % 0 % 1011,6 hPa 0,0 l/m 0,2 km/h (0 Bft) O-NO 67 0 min 0,0 UV-I 10,0 C 12,5 C 0,0 km/h (0 Bft)
13.10.2014 01:30 12,0 C 26,8 C 12,8 C 12,6 C 12,6 C 0,6 C 87 % 89 % 0 % 1011,3 hPa 0,0 l/m 0,2 km/h (0 Bft) O-SO 112 0 min 0,0 UV-I 9,9 C 12,6 C 0,0 km/h (0 Bft)
13.10.2014 01:35 12,0 C 26,8 C 12,8 C 12,6 C 12,6 C 0,6 C 87 % 89 % 0 % 1011,3 hPa 0,0 l/m 0,0 km/h (0 Bft) O 90 0 min 0,0 UV-I 9,9 C 12,6 C 0,0 km/h (0 Bft)
13.10.2014 01:40 12,0 C 26,8 C 12,9 C 12,5 C 12,5 C 0,5 C 87 % 89 % 0 % 1011,3 hPa 0,0 l/m 0,0 km/h (0 Bft) O-NO 67 0 min 0,0 UV-I 9,9 C 12,5 C 0,0 km/h (0 Bft)
13.10.2014 01:45 12,0 C 26,9 C 12,7 C 12,4 C 12,4 C 0,4 C 87 % 89 % 0 % 1011,3 hPa 0,0 l/m 0,3 km/h (0 Bft) O-NO 67 0 min 0,0 UV-I 9,9 C 12,4 C 2,3 km/h (1 Bft)
13.10.2014 01:50 11,9 C 26,8 C 12,6 C 12,3 C 12,3 C 0,4 C 88 % 89 % 0 % 1011,5 hPa 0,0 l/m 1,1 km/h (1 Bft) O-NO 67 0 min 0,0 UV-I 10,0 C 12,3 C 2,4 km/h (1 Bft)
13.10.2014 01:55 11,9 C 26,8 C 12,7 C 12,3 C 12,3 C 0,4 C 88 % 90 % 0 % 1011,5 hPa 0,0 l/m 1,8 km/h (1 Bft) O-NO 67 0 min 0,0 UV-I 10,0 C 12,3 C 2,4 km/h (1 Bft)
13.10.2014 02:00 11,9 C 26,8 C 12,7 C 12,2 C 12,2 C 0,3 C 88 % 90 % 0 % 1011,5 hPa 0,0 l/m 1,9 km/h (1 Bft) O-NO 67 0 min 0,0 UV-I 10,0 C 12,2 C 0,0 km/h (0 Bft)
13.10.2014 02:05 11,8 C 26,8 C 12,7 C 12,1 C 12,1 C 0,3 C 88 % 90 % 0 % 1011,5 hPa 0,0 l/m 1,1 km/h (1 Bft) N-NO 22 0 min 0,0 UV-I 9,9 C 12,1 C 0,0 km/h (0 Bft)
13.10.2014 02:10 11,6 C 26,8 C 12,4 C 11,9 C 11,9 C 0,3 C 88 % 90 % 0 % 1011,2 hPa 0,0 l/m 0,0 km/h (0 Bft) S-SO 157 0 min 0,0 UV-I 9,7 C 11,9 C 0,0 km/h (0 Bft)
13.10.2014 02:15 11,7 C 26,8 C 12,4 C 11,7 C 11,7 C 0,0 C 88 % 90 % 0 % 1011,2 hPa 0,0 l/m 0,0 km/h (0 Bft) O-NO 67 0 min 0,0 UV-I 9,8 C 11,7 C 0,0 km/h (0 Bft)
13.10.2014 02:20 11,5 C 26,8 C 12,3 C 11,7 C 11,7 C 0,2 C 88 % 90 % 0 % 1011,2 hPa 0,0 l/m 0,6 km/h (0 Bft) O-NO 67 0 min 0,0 UV-I 9,6 C 11,7 C 2,3 km/h (1 Bft)
13.10.2014 02:25 11,6 C 26,8 C 12,4 C 11,8 C 11,8 C 0,2 C 88 % 90 % 0 % 1011,2 hPa 0,0 l/m 1,1 km/h (1 Bft) O-NO 67 0 min 0,0 UV-I 9,7 C 11,8 C 0,0 km/h (0 Bft)
13.10.2014 02:30 11,5 C 26,8 C 12,3 C 11,8 C 11,8 C 0,3 C 88 % 90 % 0 % 1010,9 hPa 0,0 l/m 0,6 km/h (0 Bft) N-NW 337 0 min 0,0 UV-I 9,6 C 11,8 C 0,0 km/h (0 Bft)
13.10.2014 02:35 11,5 C 26,8 C 12,3 C 11,7 C 11,7 C 0,2 C 88 % 90 % 0 % 1010,9 hPa 0,0 l/m 0,0 km/h (0 Bft) N-NO 22 0 min 0,0 UV-I 9,6 C 11,7 C 0,0 km/h (0 Bft)
13.10.2014 02:40 11,3 C 26,8 C 12,1 C 11,5 C 11,5 C 0,2 C 88 % 90 % 0 % 1010,9 hPa 0,0 l/m 0,0 km/h (0 Bft) NO 45 0 min 0,0 UV-I 9,4 C 11,5 C 0,0 km/h (0 Bft)
13.10.2014 02:45 11,3 C 26,8 C 12,1 C 11,5 C 11,5 C 0,2 C 88 % 90 % 0 % 1010,9 hPa 0,0 l/m 0,0 km/h (0 Bft) O-NO 67 0 min 0,0 UV-I 9,4 C 11,5 C 0,0 km/h (0 Bft)
13.10.2014 02:50 11,3 C 26,8 C 12,1 C 11,4 C 11,4 C 0,1 C 88 % 90 % 0 % 1010,6 hPa 0,0 l/m 0,0 km/h (0 Bft) NO 45 0 min 0,0 UV-I 9,4 C 11,4 C 0,0 km/h (0 Bft)
13.10.2014 02:55 11,1 C 26,8 C 11,9 C 11,3 C 11,3 C 0,2 C 88 % 90 % 0 % 1010,6 hPa 0,0 l/m 0,0 km/h (0 Bft) N-NW 337 0 min 0,0 UV-I 9,2 C 11,3 C 0,0 km/h (0 Bft)
13.10.2014 03:00 11,1 C 26,8 C 11,9 C 11,1 C 11,1 C 0,0 C 88 % 90 % 0 % 1010,6 hPa 0,0 l/m 0,0 km/h (0 Bft) N-NW 337 0 min 0,0 UV-I 9,2 C 11,1 C 0,0 km/h (0 Bft)
13.10.2014 03:05 10,9 C 26,8 C 11,8 C 10,9 C 10,9 C 0,0 C 88 % 90 % 0 % 1010,6 hPa 0,0 l/m 0,0 km/h (0 Bft) W-NW 292 0 min 0,0 UV-I 9,0 C 10,9 C 0,0 km/h (0 Bft)
13.10.2014 03:10 10,8 C 26,8 C 11,8 C 10,9 C 10,9 C 0,1 C 88 % 90 % 0 % 1010,6 hPa 0,0 l/m 0,0 km/h (0 Bft) W-NW 292 0 min 0,0 UV-I 8,9 C 10,9 C 0,0 km/h (0 Bft)
13.10.2014 03:15 10,7 C 26,8 C 11,7 C 10,9 C 10,9 C 0,2 C 88 % 90 % 0 % 1010,6 hPa 0,0 l/m 0,0 km/h (0 Bft) O-SO 112 0 min 0,0 UV-I 8,8 C 10,9 C 0,0 km/h (0 Bft)
13.10.2014 03:20 10,7 C 26,8 C 11,6 C 10,9 C 10,9 C 0,2 C 88 % 90 % 0 % 1010,6 hPa 0,0 l/m 0,0 km/h (0 Bft) NO 45 0 min 0,0 UV-I 8,8 C 10,9 C 0,0 km/h (0 Bft)
13.10.2014 03:25 10,7 C 26,8 C 11,5 C 10,9 C 10,9 C 0,2 C 89 % 90 % 0 % 1010,6 hPa 0,0 l/m 0,0 km/h (0 Bft) N-NW 337 0 min 0,0 UV-I 9,0 C 10,9 C 0,0 km/h (0 Bft)
13.10.2014 03:30 10,7 C 26,8 C 11,6 C 10,8 C 10,8 C 0,1 C 89 % 90 % 0 % 1010,4 hPa 0,0 l/m 0,0 km/h (0 Bft) W-SW 247 0 min 0,0 UV-I 9,0 C 10,8 C 0,0 km/h (0 Bft)
13.10.2014 03:35 10,5 C 26,8 C 11,6 C 10,7 C 10,7 C 0,2 C 89 % 90 % 0 % 1010,4 hPa 0,0 l/m 0,0 km/h (0 Bft) W 270 0 min 0,0 UV-I 8,8 C 10,7 C 0,0 km/h (0 Bft)
13.10.2014 03:41 10,5 C 26,7 C 11,5 C 10,8 C 10,8 C 0,3 C 89 % 90 % 0 % 1010,4 hPa 0,0 l/m 0,3 km/h (0 Bft) N 0 0 min 0,0 UV-I 8,8 C 10,8 C 0,0 km/h (0 Bft)
13.10.2014 03:45 10,7 C 26,7 C 11,3 C 10,9 C 10,9 C 0,2 C 89 % 90 % 0 % 1010,4 hPa 0,0 l/m 0,3 km/h (0 Bft) O-NO 67 0 min 0,0 UV-I 9,0 C 10,9 C 0,0 km/h (0 Bft)
13.10.2014 03:50 10,6 C 26,7 C 11,3 C 10,9 C 10,9 C 0,3 C 89 % 90 % 0 % 1010,2 hPa 0,0 l/m 0,0 km/h (0 Bft) W 270 0 min 0,0 UV-I 8,9 C 10,9 C 0,0 km/h (0 Bft)
13.10.2014 03:55 10,5 C 26,8 C 11,4 C 10,8 C 10,8 C 0,3 C 89 % 90 % 0 % 1010,2 hPa 0,0 l/m 0,0 km/h (0 Bft) S-SW 202 0 min 0,0 UV-I 8,8 C 10,8 C 0,0 km/h (0 Bft)
13.10.2014 04:00 10,4 C 26,7 C 11,3 C 10,7 C 10,7 C 0,3 C 89 % 90 % 0 % 1010,2 hPa 0,0 l/m 0,0 km/h (0 Bft) N 360 0 min 0,0 UV-I 8,7 C 10,7 C 0,0 km/h (0 Bft)
13.10.2014 04:05 10,4 C 26,7 C 11,3 C 10,8 C 10,8 C 0,4 C 89 % 90 % 0 % 1010,2 hPa 0,0 l/m 0,0 km/h (0 Bft) NO 45 0 min 0,0 UV-I 8,7 C 10,8 C 0,0 km/h (0 Bft)
13.10.2014 04:10 10,4 C 26,7 C 11,3 C 10,7 C 10,7 C 0,3 C 89 % 90 % 0 % 1010,2 hPa 0,0 l/m 0,0 km/h (0 Bft) NW 315 0 min 0,0 UV-I 8,7 C 10,7 C 0,0 km/h (0 Bft)
13.10.2014 04:15 10,4 C 26,7 C 11,2 C 10,6 C 10,6 C 0,2 C 89 % 90 % 0 % 1010,2 hPa 0,0 l/m 0,0 km/h (0 Bft) O-NO 67 0 min 0,0 UV-I 8,7 C 10,6 C 0,0 km/h (0 Bft)
13.10.2014 04:20 10,3 C 26,7 C 11,1 C 10,6 C 10,6 C 0,3 C 89 % 90 % 0 % 1010,2 hPa 0,0 l/m 0,0 km/h (0 Bft) NO 45 0 min 0,0 UV-I 8,6 C 10,6 C 0,0 km/h (0 Bft)
13.10.2014 04:25 10,2 C 26,7 C 11,0 C 10,6 C 10,6 C 0,4 C 89 % 90 % 0 % 1010,2 hPa 0,0 l/m 0,0 km/h (0 Bft) N-NW 337 0 min 0,0 UV-I 8,5 C 10,6 C 0,0 km/h (0 Bft)
13.10.2014 04:30 10,1 C 26,7 C 11,1 C 10,5 C 10,5 C 0,4 C 89 % 90 % 0 % 1009,9 hPa 0,0 l/m 0,0 km/h (0 Bft) NO 45 0 min 0,0 UV-I 8,4 C 10,5 C 0,0 km/h (0 Bft)
13.10.2014 04:35 10,1 C 26,7 C 11,1 C 10,5 C 10,5 C 0,4 C 89 % 90 % 0 % 1009,9 hPa 0,0 l/m 0,0 km/h (0 Bft) NO 45 0 min 0,0 UV-I 8,4 C 10,5 C 0,0 km/h (0 Bft)
13.10.2014 04:40 10,1 C 26,7 C 10,8 C 10,5 C 10,5 C 0,4 C 89 % 90 % 0 % 1009,9 hPa 0,0 l/m 0,0 km/h (0 Bft) N-NO 22 0 min 0,0 UV-I 8,4 C 10,5 C 0,0 km/h (0 Bft)
13.10.2014 04:45 10,2 C 26,7 C 10,8 C 10,6 C 10,6 C 0,4 C 90 % 90 % 0 % 1009,9 hPa 0,0 l/m 0,2 km/h (0 Bft) O-NO 67 0 min 0,0 UV-I 8,6 C 10,6 C 2,6 km/h (1 Bft)
13.10.2014 04:50 10,3 C 26,7 C 11,1 C 10,8 C 10,8 C 0,5 C 90 % 90 % 0 % 1009,2 hPa 0,0 l/m 0,5 km/h (0 Bft) O-NO 67 0 min 0,0 UV-I 8,7 C 10,8 C 0,0 km/h (0 Bft)
13.10.2014 04:55 10,3 C 26,7 C 11,2 C 10,8 C 10,8 C 0,5 C 90 % 90 % 0 % 1009,2 hPa 0,0 l/m 0,5 km/h (0 Bft) N-NW 337 0 min 0,0 UV-I 8,7 C 10,8 C 0,0 km/h (0 Bft)
13.10.2014 05:00 10,4 C 26,7 C 11,2 C 10,9 C 10,9 C 0,5 C 90 % 90 % 0 % 1009,2 hPa 0,0 l/m 0,3 km/h (0 Bft) N-NW 337 0 min 0,0 UV-I 8,8 C 10,9 C 1,9 km/h (1 Bft)
13.10.2014 05:05 10,4 C 26,7 C 11,2 C 10,9 C 10,9 C 0,5 C 90 % 90 % 0 % 1009,2 hPa 0,0 l/m 0,3 km/h (0 Bft) N-NO 22 0 min 0,0 UV-I 8,8 C 10,9 C 0,0 km/h (0 Bft)
13.10.2014 05:10 10,3 C 26,7 C 11,1 C 10,7 C 10,7 C 0,4 C 90 % 90 % 0 % 1009,5 hPa 0,0 l/m 0,0 km/h (0 Bft) W-NW 292 0 min 0,0 UV-I 8,7 C 10,7 C 0,0 km/h (0 Bft)
13.10.2014 05:15 10,3 C 26,7 C 11,2 C 10,7 C 10,7 C 0,4 C 90 % 90 % 0 % 1009,5 hPa 0,0 l/m 0,0 km/h (0 Bft) NW 315 0 min 0,0 UV-I 8,7 C 10,7 C 0,0 km/h (0 Bft)
13.10.2014 05:20 10,3 C 26,7 C 11,1 C 10,6 C 10,6 C 0,3 C 90 % 90 % 0 % 1009,5 hPa 0,0 l/m 0,0 km/h (0 Bft) N-NW 337 0 min 0,0 UV-I 8,7 C 10,6 C 0,0 km/h (0 Bft)
13.10.2014 05:25 10,3 C 26,7 C 11,0 C 10,6 C 10,6 C 0,3 C 90 % 90 % 0 % 1009,5 hPa 0,0 l/m 0,0 km/h (0 Bft) N-NO 22 0 min 0,0 UV-I 8,7 C 10,6 C 0,0 km/h (0 Bft)
13.10.2014 05:30 10,3 C 26,7 C 11,1 C 10,7 C 10,7 C 0,4 C 90 % 90 % 0 % 1009,4 hPa 0,0 l/m 0,0 km/h (0 Bft) SO 135 0 min 0,0 UV-I 8,7 C 10,7 C 0,0 km/h (0 Bft)
13.10.2014 05:35 10,3 C 26,7 C 10,9 C 10,7 C 10,7 C 0,4 C 91 % 90 % 0 % 1009,4 hPa 0,0 l/m 0,3 km/h (0 Bft) O-NO 67 0 min 0,0 UV-I 8,9 C 10,7 C 2,1 km/h (1 Bft)
13.10.2014 05:40 10,4 C 26,6 C 11,0 C 10,9 C 10,9 C 0,5 C 91 % 91 % 0 % 1009,4 hPa 0,0 l/m 0,5 km/h (0 Bft) NO 45 0 min 0,0 UV-I 9,0 C 10,9 C 0,0 km/h (0 Bft)
13.10.2014 05:45 10,4 C 26,6 C 11,1 C 10,9 C 10,9 C 0,5 C 91 % 91 % 0 % 1009,4 hPa 0,0 l/m 0,5 km/h (0 Bft) N-NW 337 0 min 0,0 UV-I 9,0 C 10,9 C 0,0 km/h (0 Bft)
13.10.2014 05:50 10,4 C 26,6 C 11,1 C 10,9 C 10,9 C 0,5 C 91 % 91 % 0 % 1008,9 hPa 0,0 l/m 0,0 km/h (0 Bft) NW 315 0 min 0,0 UV-I 9,0 C 10,9 C 0,0 km/h (0 Bft)
13.10.2014 05:55 10,4 C 26,6 C 11,2 C 10,9 C 10,9 C 0,5 C 91 % 91 % 0 % 1008,9 hPa 0,0 l/m 0,0 km/h (0 Bft) NW 315 0 min 0,0 UV-I 9,0 C 10,9 C 0,0 km/h (0 Bft)
13.10.2014 06:00 10,5 C 26,6 C 11,1 C 10,9 C 10,9 C 0,4 C 91 % 91 % 0 % 1008,9 hPa 0,0 l/m 0,0 km/h (0 Bft) NW 315 0 min 0,0 UV-I 9,1 C 10,9 C 0,0 km/h (0 Bft)
13.10.2014 06:05 10,4 C 26,6 C 11,2 C 10,9 C 10,9 C 0,5 C 91 % 91 % 0 % 1008,9 hPa 0,0 l/m 0,0 km/h (0 Bft) W-SW 247 0 min 0,0 UV-I 9,0 C 10,9 C 0,0 km/h (0 Bft)
13.10.2014 06:10 10,3 C 26,6 C 10,9 C 10,7 C 10,7 C 0,4 C 91 % 91 % 0 % 1008,9 hPa 0,0 l/m 0,0 km/h (0 Bft) O-NO 67 0 min 0,0 UV-I 8,9 C 10,7 C 0,0 km/h (0 Bft)
13.10.2014 06:15 10,2 C 26,7 C 10,9 C 10,6 C 10,6 C 0,4 C 91 % 91 % 0 % 1008,9 hPa 0,0 l/m 0,0 km/h (0 Bft) SO 135 0 min 0,0 UV-I 8,8 C 10,6 C 0,0 km/h (0 Bft)
13.10.2014 06:20 10,0 C 26,7 C 10,8 C 10,4 C 10,4 C 0,4 C 90 % 91 % 0 % 1008,9 hPa 0,0 l/m 0,0 km/h (0 Bft) O-NO 67 0 min 0,0 UV-I 8,4 C 10,4 C 0,0 km/h (0 Bft)
13.10.2014 06:25 9,9 C 26,7 C 10,8 C 10,3 C 10,3 C 0,4 C 90 % 91 % 0 % 1008,9 hPa 0,0 l/m 0,0 km/h (0 Bft) O-NO 67 0 min 0,0 UV-I 8,3 C 10,3 C 0,0 km/h (0 Bft)
13.10.2014 06:30 9,7 C 26,7 C 10,7 C 10,2 C 10,2 C 0,5 C 90 % 91 % 0 % 1008,9 hPa 0,0 l/m 0,0 km/h (0 Bft) O-NO 67 0 min 0,0 UV-I 8,1 C 10,2 C 0,0 km/h (0 Bft)
13.10.2014 06:35 9,7 C 26,7 C 10,7 C 10,2 C 10,2 C 0,5 C 90 % 91 % 0 % 1008,9 hPa 0,0 l/m 0,0 km/h (0 Bft) O-NO 67 0 min 0,0 UV-I 8,1 C 10,2 C 0,0 km/h (0 Bft)
13.10.2014 06:42 9,7 C 26,7 C 10,7 C 10,0 C 10,0 C 0,3 C 90 % 91 % 0 % 1008,9 hPa 0,0 l/m 0,0 km/h (0 Bft) N 0 0 min 0,0 UV-I 8,1 C 10,0 C 0,0 km/h (0 Bft)
13.10.2014 06:45 9,6 C 26,7 C 10,6 C 9,9 C 9,9 C 0,3 C 90 % 91 % 0 % 1008,9 hPa 0,0 l/m 0,0 km/h (0 Bft) O 90 0 min 0,0 UV-I 8,0 C 9,9 C 0,0 km/h (0 Bft)
13.10.2014 06:50 9,5 C 26,7 C 10,5 C 9,7 C 9,7 C 0,2 C 90 % 91 % 0 % 1008,6 hPa 0,0 l/m 0,0 km/h (0 Bft) O-NO 67 0 min 0,0 UV-I 7,9 C 9,7 C 0,0 km/h (0 Bft)
13.10.2014 06:55 9,5 C 26,7 C 10,4 C 9,7 C 9,7 C 0,2 C 90 % 91 % 0 % 1008,6 hPa 0,0 l/m 0,0 km/h (0 Bft) W 270 0 min 0,0 UV-I 7,9 C 9,7 C 0,0 km/h (0 Bft)
13.10.2014 07:00 9,3 C 26,7 C 10,5 C 9,6 C 9,6 C 0,3 C 90 % 91 % 0 % 1008,6 hPa 0,0 l/m 0,0 km/h (0 Bft) S-SO 157 0 min 0,0 UV-I 7,7 C 9,6 C 0,0 km/h (0 Bft)
13.10.2014 07:05 9,2 C 26,6 C 10,4 C 9,6 C 9,6 C 0,4 C 90 % 91 % 0 % 1008,6 hPa 0,0 l/m 0,0 km/h (0 Bft) N-NO 22 0 min 0,0 UV-I 7,6 C 9,6 C 0,0 km/h (0 Bft)
13.10.2014 07:10 9,2 C 26,7 C 10,3 C 9,6 C 9,6 C 0,4 C 90 % 91 % 0 % 1008,6 hPa 0,0 l/m 0,0 km/h (0 Bft) SO 135 0 min 0,0 UV-I 7,6 C 9,6 C 0,0 km/h (0 Bft)
13.10.2014 07:15 9,2 C 26,6 C 10,2 C 9,6 C 9,6 C 0,4 C 90 % 91 % 0 % 1008,6 hPa 0,0 l/m 0,0 km/h (0 Bft) S 180 0 min 0,0 UV-I 7,6 C 9,6 C 0,0 km/h (0 Bft)
13.10.2014 07:20 9,2 C 26,6 C 10,3 C 9,5 C 9,5 C 0,3 C 90 % 91 % 0 % 1008,6 hPa 0,0 l/m 0,0 km/h (0 Bft) O-NO 67 0 min 0,0 UV-I 7,6 C 9,5 C 0,0 km/h (0 Bft)
13.10.2014 07:25 9,3 C 26,6 C 10,3 C 9,6 C 9,6 C 0,3 C 90 % 91 % 0 % 1008,6 hPa 0,0 l/m 0,3 km/h (0 Bft) O-NO 67 0 min 0,0 UV-I 7,7 C 9,6 C 1,6 km/h (1 Bft)
13.10.2014 07:30 9,2 C 26,6 C 10,3 C 9,9 C 9,9 C 0,7 C 91 % 91 % 0 % 1008,3 hPa 0,0 l/m 0,5 km/h (0 Bft) O-NO 67 0 min 0,0 UV-I 7,8 C 9,9 C 0,0 km/h (0 Bft)
13.10.2014 07:35 9,3 C 26,6 C 10,3 C 9,9 C 9,9 C 0,6 C 91 % 91 % 0 % 1008,3 hPa 0,0 l/m 0,2 km/h (0 Bft) W-SW 247 0 min 0,0 UV-I 7,9 C 9,9 C 0,0 km/h (0 Bft)
13.10.2014 07:40 9,3 C 26,6 C 10,3 C 9,7 C 9,7 C 0,4 C 91 % 91 % 11 % 1008,3 hPa 0,0 l/m 0,0 km/h (0 Bft) W-SW 247 5 min 0,0 UV-I 7,9 C 9,7 C 0,0 km/h (0 Bft)
13.10.2014 07:45 9,0 C 26,6 C 10,1 C 9,4 C 9,4 C 0,4 C 91 % 91 % 11 % 1008,3 hPa 0,0 l/m 0,0 km/h (0 Bft) W-SW 247 5 min 0,0 UV-I 7,6 C 9,4 C 0,0 km/h (0 Bft)
13.10.2014 07:50 8,9 C 26,6 C 10,0 C 9,3 C 9,3 C 0,4 C 90 % 91 % 11 % 1008,5 hPa 0,0 l/m 0,0 km/h (0 Bft) W-SW 247 0 min 0,0 UV-I 7,4 C 9,3 C 0,0 km/h (0 Bft)
13.10.2014 07:55 8,8 C 26,6 C 10,0 C 9,2 C 9,2 C 0,4 C 90 % 91 % 11 % 1008,5 hPa 0,0 l/m 0,0 km/h (0 Bft) W-SW 247 0 min 0,0 UV-I 7,3 C 9,2 C 0,0 km/h (0 Bft)
13.10.2014 08:00 8,9 C 26,6 C 9,9 C 9,3 C 9,3 C 0,4 C 91 % 90 % 11 % 1008,5 hPa 0,0 l/m 0,0 km/h (0 Bft) NO 45 0 min 0,0 UV-I 7,5 C 9,3 C 0,0 km/h (0 Bft)
13.10.2014 08:05 8,8 C 26,6 C 10,1 C 9,4 C 9,4 C 0,6 C 91 % 91 % 16 % 1008,5 hPa 0,0 l/m 0,0 km/h (0 Bft) W-NW 292 0 min 0,0 UV-I 7,4 C 9,4 C 0,0 km/h (0 Bft)
13.10.2014 08:10 8,9 C 26,6 C 10,0 C 9,5 C 9,5 C 0,6 C 91 % 91 % 16 % 1008,4 hPa 0,0 l/m 0,0 km/h (0 Bft) W-SW 247 0 min 0,0 UV-I 7,5 C 9,5 C 0,0 km/h (0 Bft)
13.10.2014 08:15 8,9 C 26,5 C 10,0 C 9,6 C 9,6 C 0,7 C 91 % 91 % 18 % 1008,4 hPa 0,0 l/m 0,0 km/h (0 Bft) SW 225 0 min 0,0 UV-I 7,5 C 9,6 C 0,0 km/h (0 Bft)
13.10.2014 08:20 8,8 C 26,5 C 10,1 C 9,6 C 9,6 C 0,8 C 91 % 91 % 21 % 1008,4 hPa 0,0 l/m 0,0 km/h (0 Bft) W-SW 247 0 min 0,0 UV-I 7,4 C 9,6 C 0,0 km/h (0 Bft)
13.10.2014 08:25 8,9 C 26,5 C 10,1 C 9,7 C 9,7 C 0,8 C 91 % 91 % 21 % 1008,4 hPa 0,0 l/m 0,0 km/h (0 Bft) SO 135 0 min 0,0 UV-I 7,5 C 9,7 C 0,0 km/h (0 Bft)
13.10.2014 08:30 8,8 C 26,5 C 10,3 C 9,8 C 9,8 C 1,0 C 91 % 91 % 26 % 1008,6 hPa 0,0 l/m 0,0 km/h (0 Bft) W-SW 247 0 min 0,0 UV-I 7,4 C 9,8 C 0,0 km/h (0 Bft)
13.10.2014 08:35 8,9 C 26,5 C 10,3 C 9,9 C 9,9 C 1,0 C 91 % 91 % 26 % 1008,6 hPa 0,0 l/m 0,2 km/h (0 Bft) O 90 0 min 0,0 UV-I 7,5 C 9,9 C 1,9 km/h (1 Bft)
13.10.2014 08:40 9,0 C 26,5 C 10,2 C 9,9 C 9,9 C 0,9 C 91 % 91 % 24 % 1008,6 hPa 0,0 l/m 0,2 km/h (0 Bft) O-NO 67 0 min 0,0 UV-I 7,6 C 9,9 C 0,0 km/h (0 Bft)
13.10.2014 08:45 9,0 C 26,5 C 10,4 C 10,1 C 10,1 C 1,1 C 91 % 91 % 29 % 1008,6 hPa 0,0 l/m 0,2 km/h (0 Bft) O-SO 112 0 min 0,0 UV-I 7,6 C 10,1 C 0,0 km/h (0 Bft)
13.10.2014 08:50 9,3 C 26,5 C 10,5 C 10,3 C 10,3 C 1,0 C 92 % 91 % 26 % 1008,9 hPa 0,0 l/m 0,0 km/h (0 Bft) O 90 0 min 0,0 UV-I 8,1 C 10,3 C 0,0 km/h (0 Bft)
13.10.2014 08:55 9,4 C 26,5 C 10,7 C 10,5 C 10,5 C 1,1 C 92 % 91 % 29 % 1008,9 hPa 0,0 l/m 0,0 km/h (0 Bft) W-SW 247 0 min 0,0 UV-I 8,2 C 10,5 C 0,0 km/h (0 Bft)
13.10.2014 09:00 9,6 C 26,5 C 10,9 C 10,8 C 10,8 C 1,2 C 92 % 91 % 32 % 1008,9 hPa 0,0 l/m 0,0 km/h (0 Bft) O-NO 67 0 min 0,0 UV-I 8,4 C 10,8 C 0,0 km/h (0 Bft)
13.10.2014 09:05 9,6 C 26,5 C 11,1 C 11,1 C 11,1 C 1,5 C 92 % 91 % 39 % 1008,9 hPa 0,0 l/m 0,0 km/h (0 Bft) SO 135 0 min 0,0 UV-I 8,4 C 11,1 C 0,0 km/h (0 Bft)
13.10.2014 09:10 9,9 C 26,5 C 11,3 C 11,9 C 11,9 C 2,0 C 92 % 91 % 53 % 1008,9 hPa 0,0 l/m 0,0 km/h (0 Bft) SW 225 0 min 0,0 UV-I 8,7 C 11,9 C 0,0 km/h (0 Bft)
13.10.2014 09:15 9,9 C 26,5 C 11,5 C 12,4 C 12,4 C 2,5 C 92 % 91 % 66 % 1008,9 hPa 0,0 l/m 0,0 km/h (0 Bft) W 270 0 min 0,0 UV-I 8,7 C 12,4 C 0,0 km/h (0 Bft)
13.10.2014 09:20 10,2 C 26,5 C 11,8 C 12,8 C 12,8 C 2,6 C 92 % 91 % 68 % 1008,9 hPa 0,0 l/m 0,0 km/h (0 Bft) SW 225 0 min 0,0 UV-I 9,0 C 12,8 C 0,0 km/h (0 Bft)
13.10.2014 09:25 10,3 C 26,5 C 11,9 C 12,8 C 12,8 C 2,5 C 92 % 91 % 66 % 1008,9 hPa 0,0 l/m 0,0 km/h (0 Bft) SW 225 0 min 0,0 UV-I 9,1 C 12,8 C 0,0 km/h (0 Bft)
13.10.2014 09:30 10,4 C 26,5 C 12,0 C 12,8 C 12,8 C 2,4 C 92 % 91 % 63 % 1009,0 hPa 0,0 l/m 0,0 km/h (0 Bft) W-SW 247 0 min 0,0 UV-I 9,2 C 12,8 C 0,0 km/h (0 Bft)
13.10.2014 09:35 10,5 C 26,5 C 12,4 C 13,0 C 13,0 C 2,5 C 92 % 91 % 66 % 1009,0 hPa 0,0 l/m 0,0 km/h (0 Bft) W-SW 247 0 min 0,0 UV-I 9,3 C 13,0 C 0,0 km/h (0 Bft)
13.10.2014 09:42 10,8 C 26,4 C 12,6 C 13,1 C 13,1 C 2,3 C 92 % 90 % 61 % 1009,0 hPa 0,0 l/m 0,0 km/h (0 Bft) N 0 0 min 0,0 UV-I 9,6 C 13,1 C 0,0 km/h (0 Bft)
13.10.2014 09:45 10,8 C 26,4 C 12,7 C 13,2 C 13,2 C 2,4 C 92 % 90 % 63 % 1009,0 hPa 0,0 l/m 0,0 km/h (0 Bft) W-SW 247 0 min 0,0 UV-I 9,6 C 13,2 C 0,0 km/h (0 Bft)
13.10.2014 09:50 11,1 C 26,3 C 12,9 C 13,6 C 13,6 C 2,5 C 93 % 91 % 66 % 1008,8 hPa 0,0 l/m 0,2 km/h (0 Bft) W-SW 247 0 min 0,0 UV-I 10,0 C 13,6 C 0,0 km/h (0 Bft)
13.10.2014 09:55 11,3 C 26,3 C 13,1 C 13,8 C 13,8 C 2,5 C 93 % 91 % 66 % 1008,8 hPa 0,0 l/m 0,2 km/h (0 Bft) SW 225 0 min 0,0 UV-I 10,2 C 13,8 C 0,0 km/h (0 Bft)
13.10.2014 10:00 11,7 C 26,3 C 13,3 C 14,2 C 14,2 C 2,5 C 93 % 91 % 66 % 1008,8 hPa 0,0 l/m 0,0 km/h (0 Bft) SW 225 0 min 0,0 UV-I 10,6 C 14,2 C 0,0 km/h (0 Bft)
13.10.2014 10:05 11,8 C 26,3 C 13,5 C 14,4 C 14,4 C 2,6 C 93 % 91 % 68 % 1008,8 hPa 0,0 l/m 0,0 km/h (0 Bft) SW 225 0 min 0,0 UV-I 10,7 C 14,4 C 0,0 km/h (0 Bft)
13.10.2014 10:10 12,1 C 26,3 C 13,9 C 14,8 C 14,8 C 2,7 C 93 % 90 % 71 % 1008,8 hPa 0,0 l/m 0,0 km/h (0 Bft) SW 225 0 min 0,0 UV-I 11,0 C 14,8 C 0,0 km/h (0 Bft)
13.10.2014 10:15 12,3 C 26,3 C 14,0 C 15,1 C 15,1 C 2,8 C 93 % 90 % 74 % 1008,8 hPa 0,0 l/m 0,0 km/h (0 Bft) W-SW 247 0 min 0,0 UV-I 11,2 C 15,1 C 0,0 km/h (0 Bft)
13.10.2014 10:20 12,7 C 26,3 C 14,3 C 15,7 C 15,7 C 3,0 C 93 % 90 % 79 % 1008,8 hPa 0,0 l/m 0,2 km/h (0 Bft) W-SW 247 0 min 0,0 UV-I 11,6 C 15,7 C 0,0 km/h (0 Bft)
13.10.2014 10:25 12,8 C 26,3 C 14,6 C 16,0 C 16,0 C 3,2 C 93 % 90 % 84 % 1008,8 hPa 0,0 l/m 0,2 km/h (0 Bft) S-SW 202 0 min 0,0 UV-I 11,7 C 16,0 C 0,0 km/h (0 Bft)
13.10.2014 10:30 13,0 C 26,2 C 14,8 C 16,5 C 16,5 C 3,5 C 93 % 90 % 92 % 1009,1 hPa 0,0 l/m 0,3 km/h (0 Bft) SW 225 5 min 0,0 UV-I 11,9 C 16,5 C 1,8 km/h (1 Bft)
13.10.2014 10:35 13,2 C 26,1 C 15,0 C 16,8 C 16,8 C 3,6 C 93 % 90 % 95 % 1009,1 hPa 0,0 l/m 0,3 km/h (0 Bft) W 270 5 min 0,0 UV-I 12,1 C 16,8 C 0,0 km/h (0 Bft)
13.10.2014 10:40 13,5 C 26,1 C 15,2 C 17,4 C 17,4 C 3,9 C 93 % 90 % 100 % 1009,1 hPa 0,0 l/m 0,3 km/h (0 Bft) W-SW 247 5 min 0,0 UV-I 12,4 C 17,4 C 0,0 km/h (0 Bft)
13.10.2014 10:45 13,7 C 26,1 C 15,3 C 17,8 C 17,8 C 4,1 C 93 % 90 % 100 % 1009,1 hPa 0,0 l/m 0,3 km/h (0 Bft) W 270 5 min 0,0 UV-I 12,6 C 17,8 C 2,1 km/h (1 Bft)
13.10.2014 10:50 14,0 C 26,1 C 15,6 C 18,3 C 18,3 C 4,3 C 93 % 90 % 100 % 1009,1 hPa 0,0 l/m 0,2 km/h (0 Bft) W-SW 247 5 min 0,0 UV-I 12,9 C 18,3 C 0,0 km/h (0 Bft)
13.10.2014 10:55 14,3 C 26,1 C 15,9 C 18,6 C 18,6 C 4,3 C 93 % 90 % 100 % 1009,1 hPa 0,0 l/m 0,2 km/h (0 Bft) W-SW 247 5 min 0,0 UV-I 13,2 C 18,6 C 0,0 km/h (0 Bft)
13.10.2014 11:00 14,5 C 26,1 C 16,0 C 19,2 C 19,2 C 4,7 C 93 % 90 % 100 % 1009,1 hPa 0,0 l/m 0,0 km/h (0 Bft) SW 225 5 min 0,0 UV-I 13,4 C 19,2 C 0,0 km/h (0 Bft)
13.10.2014 11:05 14,6 C 26,1 C 16,3 C 19,6 C 19,6 C 5,0 C 93 % 90 % 100 % 1009,1 hPa 0,0 l/m 0,0 km/h (0 Bft) W-SW 247 5 min 0,0 UV-I 13,5 C 19,6 C 0,0 km/h (0 Bft)
13.10.2014 11:10 15,0 C 26,1 C 16,4 C 20,2 C 20,2 C 5,2 C 93 % 90 % 100 % 1009,4 hPa 0,0 l/m 0,3 km/h (0 Bft) W-SW 247 5 min 0,0 UV-I 13,9 C 20,2 C 3,2 km/h (1 Bft)
13.10.2014 11:15 15,2 C 26,1 C 16,6 C 20,6 C 20,6 C 5,4 C 93 % 89 % 100 % 1009,4 hPa 0,0 l/m 0,5 km/h (0 Bft) S 180 5 min 0,0 UV-I 14,1 C 20,6 C 0,0 km/h (0 Bft)
13.10.2014 11:20 15,6 C 26,1 C 16,9 C 20,9 C 20,9 C 5,3 C 93 % 89 % 100 % 1009,4 hPa 0,0 l/m 1,0 km/h (0 Bft) NO 45 5 min 0,0 UV-I 14,5 C 20,9 C 3,7 km/h (1 Bft)
13.10.2014 11:25 15,9 C 26,1 C 16,9 C 20,8 C 20,8 C 4,9 C 93 % 89 % 100 % 1009,4 hPa 0,0 l/m 0,8 km/h (0 Bft) SW 225 5 min 0,0 UV-I 14,8 C 20,8 C 0,0 km/h (0 Bft)
13.10.2014 11:30 16,3 C 26,0 C 17,1 C 20,9 C 20,9 C 4,6 C 93 % 89 % 100 % 1009,3 hPa 0,0 l/m 0,6 km/h (0 Bft) SW 225 5 min 0,0 UV-I 15,2 C 20,9 C 0,0 km/h (0 Bft)
13.10.2014 11:35 16,4 C 26,0 C 17,2 C 21,0 C 21,0 C 4,6 C 92 % 89 % 100 % 1009,3 hPa 0,0 l/m 0,3 km/h (0 Bft) N-NO 22 5 min 0,0 UV-I 15,1 C 21,0 C 0,0 km/h (0 Bft)
13.10.2014 11:40 16,7 C 26,0 C 17,3 C 21,0 C 21,0 C 4,3 C 91 % 88 % 100 % 1009,3 hPa 0,0 l/m 0,5 km/h (0 Bft) W 270 5 min 0,0 UV-I 15,2 C 21,0 C 3,1 km/h (1 Bft)
13.10.2014 11:45 16,8 C 25,9 C 17,3 C 21,0 C 21,0 C 4,2 C 90 % 88 % 100 % 1009,3 hPa 0,0 l/m 0,8 km/h (0 Bft) SW 225 5 min 0,0 UV-I 15,1 C 21,0 C 0,0 km/h (0 Bft)
13.10.2014 11:50 17,0 C 26,0 C 17,2 C 20,7 C 20,7 C 3,7 C 89 % 87 % 97 % 1009,4 hPa 0,0 l/m 1,1 km/h (1 Bft) SW 225 5 min 0,0 UV-I 15,2 C 20,7 C 0,0 km/h (0 Bft)
13.10.2014 11:55 17,1 C 26,0 C 17,2 C 20,6 C 20,6 C 3,5 C 89 % 87 % 92 % 1009,4 hPa 0,0 l/m 0,8 km/h (0 Bft) W-SW 247 5 min 0,0 UV-I 15,3 C 20,6 C 3,4 km/h (1 Bft)
13.10.2014 12:00 17,3 C 26,0 C 17,5 C 20,7 C 20,7 C 3,4 C 87 % 87 % 89 % 1009,4 hPa 0,0 l/m 0,6 km/h (0 Bft) N 360 5 min 0,0 UV-I 15,1 C 20,7 C 0,0 km/h (0 Bft)
13.10.2014 12:05 17,5 C 26,0 C 17,6 C 20,8 C 20,8 C 3,3 C 86 % 87 % 87 % 1009,4 hPa 0,0 l/m 1,1 km/h (1 Bft) NO 45 5 min 0,0 UV-I 15,1 C 20,8 C 0,0 km/h (0 Bft)
13.10.2014 12:10 17,7 C 26,0 C 17,7 C 21,2 C 21,2 C 3,5 C 85 % 87 % 92 % 1009,2 hPa 0,0 l/m 1,0 km/h (0 Bft) S-SO 157 5 min 0,0 UV-I 15,1 C 21,2 C 0,0 km/h (0 Bft)
13.10.2014 12:15 18,0 C 26,0 C 17,8 C 21,5 C 21,5 C 3,5 C 84 % 87 % 92 % 1009,2 hPa 0,0 l/m 1,1 km/h (1 Bft) S 180 5 min 0,0 UV-I 15,3 C 21,5 C 5,3 km/h (1 Bft)
13.10.2014 12:20 18,3 C 26,0 C 17,9 C 21,5 C 21,5 C 3,2 C 83 % 86 % 84 % 1009,2 hPa 0,0 l/m 1,4 km/h (1 Bft) SW 225 0 min 0,0 UV-I 15,4 C 21,5 C 0,0 km/h (0 Bft)
13.10.2014 12:25 18,3 C 26,0 C 17,8 C 21,5 C 21,5 C 3,2 C 82 % 86 % 84 % 1009,2 hPa 0,0 l/m 1,1 km/h (1 Bft) W-SW 247 0 min 0,0 UV-I 15,2 C 21,5 C 2,6 km/h (1 Bft)
13.10.2014 12:30 18,5 C 26,0 C 17,9 C 21,5 C 21,5 C 3,0 C 81 % 85 % 79 % 1009,4 hPa 0,0 l/m 1,3 km/h (1 Bft) S-SW 202 0 min 0,0 UV-I 15,2 C 21,5 C 0,0 km/h (0 Bft)
13.10.2014 12:35 18,7 C 26,0 C 17,9 C 21,6 C 21,6 C 2,9 C 80 % 85 % 76 % 1009,4 hPa 0,0 l/m 1,6 km/h (1 Bft) W-SW 247 0 min 0,0 UV-I 15,2 C 21,6 C 7,1 km/h (2 Bft)
13.10.2014 12:42 18,7 C 26,0 C 18,1 C 22,3 C 22,3 C 3,6 C 80 % 85 % 95 % 1009,4 hPa 0,0 l/m 1,3 km/h (1 Bft) N 0 7 min 0,0 UV-I 15,2 C 22,3 C 2,4 km/h (1 Bft)
13.10.2014 12:45 18,7 C 26,1 C 18,0 C 22,2 C 22,2 C 3,5 C 80 % 85 % 92 % 1009,4 hPa 0,0 l/m 0,8 km/h (0 Bft) SO 135 3 min 0,0 UV-I 15,2 C 22,2 C 0,0 km/h (0 Bft)
13.10.2014 12:50 18,9 C 26,1 C 18,0 C 22,0 C 22,0 C 3,1 C 80 % 85 % 82 % 1009,4 hPa 0,0 l/m 0,8 km/h (0 Bft) SW 225 0 min 0,0 UV-I 15,4 C 22,0 C 1,6 km/h (1 Bft)
13.10.2014 12:55 18,9 C 26,1 C 17,9 C 21,7 C 21,7 C 2,8 C 79 % 85 % 74 % 1009,4 hPa 0,0 l/m 1,3 km/h (1 Bft) W-NW 292 0 min 0,0 UV-I 15,2 C 21,7 C 0,0 km/h (0 Bft)
13.10.2014 13:00 18,8 C 26,1 C 17,9 C 21,8 C 21,8 C 3,0 C 79 % 85 % 79 % 1009,4 hPa 0,0 l/m 1,6 km/h (1 Bft) NW 315 0 min 0,0 UV-I 15,1 C 21,8 C 3,5 km/h (1 Bft)
13.10.2014 13:05 18,9 C 26,1 C 17,9 C 21,7 C 21,7 C 2,8 C 79 % 84 % 74 % 1009,4 hPa 0,0 l/m 1,4 km/h (1 Bft) S-SW 202 0 min 0,0 UV-I 15,2 C 21,7 C 0,0 km/h (0 Bft)
13.10.2014 13:10 18,9 C 26,1 C 17,9 C 22,0 C 22,0 C 3,1 C 79 % 85 % 82 % 1009,2 hPa 0,0 l/m 1,0 km/h (0 Bft) S 180 0 min 0,0 UV-I 15,2 C 22,0 C 2,1 km/h (1 Bft)
13.10.2014 13:15 19,1 C 26,1 C 18,0 C 22,8 C 22,8 C 3,7 C 79 % 85 % 97 % 1009,2 hPa 0,0 l/m 0,5 km/h (0 Bft) W-SW 247 5 min 0,0 UV-I 15,4 C 22,8 C 2,7 km/h (1 Bft)
13.10.2014 13:20 19,1 C 26,1 C 18,0 C 23,3 C 23,3 C 4,2 C 78 % 84 % 100 % 1009,2 hPa 0,0 l/m 0,8 km/h (0 Bft) O-SO 112 5 min 0,0 UV-I 15,2 C 23,3 C 0,0 km/h (0 Bft)
13.10.2014 13:25 19,2 C 26,1 C 18,1 C 22,8 C 22,8 C 3,6 C 78 % 84 % 95 % 1009,2 hPa 0,0 l/m 0,8 km/h (0 Bft) SW 225 5 min 0,0 UV-I 15,3 C 22,8 C 0,0 km/h (0 Bft)
13.10.2014 13:30 19,2 C 26,1 C 18,1 C 22,4 C 22,4 C 3,2 C 78 % 84 % 84 % 1009,4 hPa 0,0 l/m 1,1 km/h (1 Bft) SW 225 0 min 0,0 UV-I 15,3 C 22,4 C 2,4 km/h (1 Bft)
13.10.2014 13:35 19,3 C 26,1 C 18,3 C 22,4 C 22,4 C 3,1 C 78 % 84 % 82 % 1009,4 hPa 0,0 l/m 1,4 km/h (1 Bft) SO 135 0 min 0,0 UV-I 15,4 C 22,4 C 1,8 km/h (1 Bft)
13.10.2014 13:40 19,4 C 26,2 C 18,4 C 22,4 C 22,4 C 3,0 C 78 % 84 % 79 % 1009,4 hPa 0,0 l/m 0,8 km/h (0 Bft) SO 135 0 min 0,0 UV-I 15,5 C 22,4 C 0,0 km/h (0 Bft)
13.10.2014 13:45 19,6 C 26,2 C 18,6 C 22,6 C 22,6 C 3,0 C 78 % 84 % 79 % 1009,4 hPa 0,0 l/m 0,6 km/h (0 Bft) S-SW 202 0 min 0,0 UV-I 15,7 C 22,6 C 2,1 km/h (1 Bft)
13.10.2014 13:50 19,7 C 26,2 C 18,7 C 22,3 C 22,3 C 2,6 C 77 % 84 % 68 % 1009,1 hPa 0,0 l/m 1,8 km/h (1 Bft) SW 225 0 min 0,0 UV-I 15,5 C 22,3 C 3,1 km/h (1 Bft)
13.10.2014 13:55 19,7 C 26,2 C 18,6 C 22,0 C 22,0 C 2,3 C 77 % 84 % 61 % 1009,1 hPa 0,0 l/m 2,6 km/h (1 Bft) S 180 0 min 0,0 UV-I 15,5 C 22,0 C 4,0 km/h (1 Bft)
13.10.2014 14:00 19,9 C 26,2 C 18,9 C 22,0 C 22,0 C 2,1 C 76 % 83 % 55 % 1009,1 hPa 0,0 l/m 2,9 km/h (1 Bft) SO 135 0 min 0,0 UV-I 15,5 C 22,0 C 0,0 km/h (0 Bft)
13.10.2014 14:05 20,0 C 26,2 C 18,8 C 22,0 C 22,0 C 2,0 C 76 % 82 % 53 % 1009,1 hPa 0,0 l/m 2,3 km/h (1 Bft) W-SW 247 0 min 0,0 UV-I 15,6 C 22,0 C 7,7 km/h (2 Bft)
13.10.2014 14:10 20,1 C 26,1 C 18,9 C 22,0 C 22,0 C 1,9 C 76 % 82 % 50 % 1009,3 hPa 0,0 l/m 1,3 km/h (1 Bft) S-SO 157 0 min 0,0 UV-I 15,7 C 22,0 C 5,3 km/h (1 Bft)
13.10.2014 14:15 20,1 C 26,1 C 18,9 C 22,0 C 22,0 C 1,9 C 75 % 82 % 50 % 1009,3 hPa 0,0 l/m 1,8 km/h (1 Bft) W-SW 247 0 min 0,0 UV-I 15,5 C 22,0 C 2,6 km/h (1 Bft)
13.10.2014 14:20 20,2 C 26,2 C 19,1 C 22,2 C 22,2 C 2,0 C 75 % 82 % 53 % 1009,3 hPa 0,0 l/m 2,1 km/h (1 Bft) S 180 0 min 0,0 UV-I 15,6 C 22,2 C 5,1 km/h (1 Bft)
13.10.2014 14:25 20,2 C 26,2 C 19,1 C 22,3 C 22,3 C 2,1 C 76 % 82 % 55 % 1009,3 hPa 0,0 l/m 1,4 km/h (1 Bft) O-NO 67 0 min 0,0 UV-I 15,8 C 22,3 C 0,0 km/h (0 Bft)
13.10.2014 14:30 20,5 C 26,2 C 19,2 C 22,6 C 22,6 C 2,1 C 75 % 82 % 55 % 1008,9 hPa 0,0 l/m 1,4 km/h (1 Bft) W 270 0 min 0,0 UV-I 15,9 C 22,6 C 0,0 km/h (0 Bft)
13.10.2014 14:35 20,5 C 26,2 C 19,2 C 22,6 C 22,6 C 2,1 C 75 % 82 % 55 % 1008,9 hPa 0,0 l/m 1,3 km/h (1 Bft) W 270 0 min 0,0 UV-I 15,9 C 22,6 C 10,0 km/h (2 Bft)
13.10.2014 14:40 20,6 C 26,2 C 19,2 C 22,6 C 22,6 C 2,0 C 74 % 81 % 53 % 1008,9 hPa 0,0 l/m 1,0 km/h (0 Bft) S 180 0 min 0,0 UV-I 15,8 C 22,6 C 3,5 km/h (1 Bft)
13.10.2014 14:45 20,6 C 26,2 C 19,3 C 22,6 C 22,6 C 2,0 C 74 % 81 % 53 % 1008,9 hPa 0,0 l/m 0,8 km/h (0 Bft) W-SW 247 0 min 0,0 UV-I 15,8 C 22,6 C 1,8 km/h (1 Bft)
13.10.2014 14:50 20,7 C 26,3 C 19,3 C 22,7 C 22,7 C 2,0 C 74 % 82 % 53 % 1008,9 hPa 0,0 l/m 0,5 km/h (0 Bft) S 180 0 min 0,0 UV-I 15,9 C 22,7 C 0,0 km/h (0 Bft)
13.10.2014 14:55 20,7 C 26,3 C 19,3 C 22,6 C 22,6 C 1,9 C 74 % 81 % 50 % 1008,9 hPa 0,0 l/m 0,3 km/h (0 Bft) NO 45 0 min 0,0 UV-I 15,9 C 22,6 C 1,9 km/h (1 Bft)
13.10.2014 15:00 20,7 C 26,3 C 19,3 C 22,4 C 22,4 C 1,7 C 74 % 81 % 45 % 1008,9 hPa 0,0 l/m 0,0 km/h (0 Bft) W-SW 247 0 min 0,0 UV-I 15,9 C 22,4 C 0,0 km/h (0 Bft)
13.10.2014 15:05 20,7 C 26,3 C 19,1 C 22,2 C 22,2 C 1,5 C 74 % 81 % 39 % 1008,9 hPa 0,0 l/m 0,0 km/h (0 Bft) S-SW 202 0 min 0,0 UV-I 15,9 C 22,2 C 0,0 km/h (0 Bft)
13.10.2014 15:10 20,7 C 26,3 C 19,0 C 21,7 C 21,7 C 1,0 C 74 % 81 % 26 % 1008,9 hPa 0,0 l/m 0,0 km/h (0 Bft) O-SO 112 0 min 0,0 UV-I 15,9 C 21,7 C 0,0 km/h (0 Bft)
13.10.2014 15:15 20,7 C 26,3 C 18,9 C 21,5 C 21,5 C 0,8 C 74 % 81 % 21 % 1008,9 hPa 0,0 l/m 0,0 km/h (0 Bft) O-SO 112 0 min 0,0 UV-I 15,9 C 21,5 C 0,0 km/h (0 Bft)
13.10.2014 15:20 20,4 C 26,3 C 18,8 C 21,1 C 21,1 C 0,7 C 75 % 82 % 18 % 1008,9 hPa 0,0 l/m 0,0 km/h (0 Bft) O-NO 67 0 min 0,0 UV-I 15,8 C 21,1 C 0,0 km/h (0 Bft)
13.10.2014 15:25 20,3 C 26,3 C 18,7 C 21,0 C 21,0 C 0,7 C 75 % 82 % 18 % 1008,9 hPa 0,0 l/m 0,0 km/h (0 Bft) O-NO 67 0 min 0,0 UV-I 15,7 C 21,0 C 0,0 km/h (0 Bft)
13.10.2014 15:30 20,3 C 26,3 C 18,6 C 20,8 C 20,8 C 0,5 C 75 % 82 % 13 % 1008,7 hPa 0,0 l/m 0,3 km/h (0 Bft) W 270 0 min 0,0 UV-I 15,7 C 20,8 C 0,0 km/h (0 Bft)
13.10.2014 15:35 20,3 C 26,4 C 18,6 C 20,8 C 20,8 C 0,5 C 75 % 83 % 13 % 1008,7 hPa 0,0 l/m 0,3 km/h (0 Bft) W 270 0 min 0,0 UV-I 15,7 C 20,8 C 0,0 km/h (0 Bft)
13.10.2014 15:42 20,1 C 26,4 C 18,5 C 20,7 C 20,7 C 0,6 C 76 % 83 % 16 % 1008,7 hPa 0,0 l/m 0,2 km/h (0 Bft) N 0 0 min 0,0 UV-I 15,7 C 20,7 C 0,0 km/h (0 Bft)
13.10.2014 15:45 20,0 C 26,4 C 18,5 C 20,5 C 20,5 C 0,5 C 76 % 83 % 13 % 1008,7 hPa 0,0 l/m 0,0 km/h (0 Bft) W 270 0 min 0,0 UV-I 15,6 C 20,5 C 0,0 km/h (0 Bft)
13.10.2014 15:50 20,1 C 26,5 C 18,4 C 20,4 C 20,4 C 0,3 C 77 % 84 % 8 % 1008,7 hPa 0,0 l/m 0,0 km/h (0 Bft) W-NW 292 0 min 0,0 UV-I 15,9 C 20,4 C 0,0 km/h (0 Bft)
13.10.2014 15:55 19,9 C 26,6 C 18,3 C 20,3 C 20,3 C 0,4 C 77 % 84 % 11 % 1008,7 hPa 0,0 l/m 0,0 km/h (0 Bft) O-NO 67 0 min 0,0 UV-I 15,7 C 20,3 C 0,0 km/h (0 Bft)
13.10.2014 16:00 19,9 C 26,6 C 18,3 C 20,1 C 20,1 C 0,2 C 78 % 84 % 5 % 1008,7 hPa 0,0 l/m 0,0 km/h (0 Bft) O-NO 67 0 min 0,0 UV-I 15,9 C 20,1 C 0,0 km/h (0 Bft)
13.10.2014 16:05 19,7 C 26,6 C 18,3 C 20,1 C 20,1 C 0,4 C 78 % 84 % 11 % 1008,7 hPa 0,0 l/m 0,0 km/h (0 Bft) O-NO 67 0 min 0,0 UV-I 15,8 C 20,1 C 0,0 km/h (0 Bft)
13.10.2014 16:10 19,7 C 26,6 C 18,2 C 20,1 C 20,1 C 0,4 C 78 % 84 % 11 % 1008,6 hPa 0,0 l/m 0,0 km/h (0 Bft) O-NO 67 0 min 0,0 UV-I 15,8 C 20,1 C 0,0 km/h (0 Bft)
13.10.2014 16:15 19,7 C 26,6 C 18,3 C 20,3 C 20,3 C 0,6 C 79 % 84 % 16 % 1008,6 hPa 0,0 l/m 0,0 km/h (0 Bft) W 270 0 min 0,0 UV-I 16,0 C 20,3 C 0,0 km/h (0 Bft)
13.10.2014 16:20 19,6 C 26,6 C 18,4 C 20,6 C 20,6 C 1,0 C 79 % 85 % 26 % 1008,6 hPa 0,0 l/m 0,0 km/h (0 Bft) SW 225 0 min 0,0 UV-I 15,9 C 20,6 C 0,0 km/h (0 Bft)
13.10.2014 16:25 19,6 C 26,6 C 18,4 C 20,7 C 20,7 C 1,1 C 79 % 85 % 29 % 1008,6 hPa 0,0 l/m 0,0 km/h (0 Bft) SW 225 0 min 0,0 UV-I 15,9 C 20,7 C 0,0 km/h (0 Bft)
13.10.2014 16:30 19,7 C 26,6 C 18,4 C 20,8 C 20,8 C 1,1 C 79 % 85 % 29 % 1008,4 hPa 0,0 l/m 0,0 km/h (0 Bft) SW 225 0 min 0,0 UV-I 16,0 C 20,8 C 0,0 km/h (0 Bft)
13.10.2014 16:35 19,7 C 26,7 C 18,4 C 20,8 C 20,8 C 1,1 C 79 % 85 % 29 % 1008,4 hPa 0,0 l/m 0,0 km/h (0 Bft) SW 225 0 min 0,0 UV-I 16,0 C 20,8 C 0,0 km/h (0 Bft)
13.10.2014 16:40 19,8 C 26,6 C 18,3 C 20,7 C 20,7 C 0,9 C 79 % 85 % 24 % 1008,4 hPa 0,0 l/m 0,0 km/h (0 Bft) W-SW 247 0 min 0,0 UV-I 16,0 C 20,7 C 0,0 km/h (0 Bft)
13.10.2014 16:45 19,7 C 26,7 C 18,3 C 20,6 C 20,6 C 0,9 C 79 % 85 % 24 % 1008,4 hPa 0,0 l/m 0,0 km/h (0 Bft) W 270 0 min 0,0 UV-I 16,0 C 20,6 C 0,0 km/h (0 Bft)
13.10.2014 16:50 19,7 C 26,7 C 18,2 C 20,6 C 20,6 C 0,9 C 79 % 85 % 24 % 1008,4 hPa 0,0 l/m 0,0 km/h (0 Bft) W 270 0 min 0,0 UV-I 16,0 C 20,6 C 0,0 km/h (0 Bft)
13.10.2014 16:55 19,7 C 26,7 C 18,3 C 20,4 C 20,4 C 0,7 C 79 % 85 % 18 % 1008,4 hPa 0,0 l/m 0,0 km/h (0 Bft) O 90 0 min 0,0 UV-I 16,0 C 20,4 C 0,0 km/h (0 Bft)
13.10.2014 17:00 19,5 C 26,8 C 18,2 C 20,0 C 20,0 C 0,5 C 80 % 86 % 13 % 1008,4 hPa 0,0 l/m 0,0 km/h (0 Bft) O 90 0 min 0,0 UV-I 16,0 C 20,0 C 0,0 km/h (0 Bft)
13.10.2014 17:05 19,4 C 26,8 C 18,1 C 19,7 C 19,7 C 0,3 C 80 % 86 % 8 % 1008,4 hPa 0,0 l/m 0,0 km/h (0 Bft) NO 45 0 min 0,0 UV-I 15,9 C 19,7 C 0,0 km/h (0 Bft)
13.10.2014 17:10 19,2 C 26,8 C 18,0 C 19,4 C 19,4 C 0,2 C 80 % 86 % 5 % 1008,4 hPa 0,0 l/m 0,0 km/h (0 Bft) NW 315 0 min 0,0 UV-I 15,7 C 19,4 C 0,0 km/h (0 Bft)
13.10.2014 17:15 19,1 C 26,8 C 17,9 C 19,3 C 19,3 C 0,2 C 80 % 86 % 5 % 1008,4 hPa 0,0 l/m 0,0 km/h (0 Bft) O-NO 67 0 min 0,0 UV-I 15,6 C 19,3 C 0,0 km/h (0 Bft)
13.10.2014 17:20 18,9 C 26,8 C 17,9 C 19,1 C 19,1 C 0,2 C 80 % 86 % 5 % 1008,4 hPa 0,0 l/m 0,0 km/h (0 Bft) O-NO 67 0 min 0,0 UV-I 15,4 C 19,1 C 0,0 km/h (0 Bft)
13.10.2014 17:25 18,8 C 26,9 C 17,8 C 19,0 C 19,0 C 0,2 C 80 % 87 % 5 % 1008,4 hPa 0,0 l/m 0,0 km/h (0 Bft) O-NO 67 0 min 0,0 UV-I 15,3 C 19,0 C 0,0 km/h (0 Bft)
13.10.2014 17:30 18,7 C 26,9 C 17,7 C 18,8 C 18,8 C 0,1 C 81 % 87 % 3 % 1008,5 hPa 0,0 l/m 0,0 km/h (0 Bft) O-NO 67 0 min 0,0 UV-I 15,4 C 18,8 C 0,0 km/h (0 Bft)
13.10.2014 17:35 18,5 C 26,9 C 17,6 C 18,6 C 18,6 C 0,1 C 82 % 86 % 3 % 1008,5 hPa 0,0 l/m 0,0 km/h (0 Bft) O-NO 67 0 min 0,0 UV-I 15,4 C 18,6 C 0,0 km/h (0 Bft)
13.10.2014 17:40 18,4 C 27,0 C 17,6 C 18,5 C 18,5 C 0,1 C 82 % 87 % 3 % 1008,5 hPa 0,0 l/m 0,0 km/h (0 Bft) O-NO 67 0 min 0,0 UV-I 15,3 C 18,5 C 0,0 km/h (0 Bft)
13.10.2014 17:45 18,2 C 27,0 C 17,5 C 18,4 C 18,4 C 0,2 C 82 % 87 % 5 % 1008,5 hPa 0,0 l/m 0,0 km/h (0 Bft) O 90 0 min 0,0 UV-I 15,1 C 18,4 C 0,0 km/h (0 Bft)
13.10.2014 17:50 18,0 C 27,0 C 17,4 C 18,2 C 18,2 C 0,2 C 83 % 87 % 5 % 1008,4 hPa 0,0 l/m 0,0 km/h (0 Bft) O-NO 67 0 min 0,0 UV-I 15,1 C 18,2 C 0,0 km/h (0 Bft)
13.10.2014 17:55 17,9 C 27,0 C 17,3 C 18,0 C 18,0 C 0,1 C 83 % 87 % 3 % 1008,4 hPa 0,0 l/m 0,0 km/h (0 Bft) O-NO 67 0 min 0,0 UV-I 15,0 C 18,0 C 0,0 km/h (0 Bft)
13.10.2014 18:00 17,8 C 27,1 C 17,2 C 17,8 C 17,8 C 0,0 C 83 % 88 % 0 % 1008,4 hPa 0,0 l/m 0,0 km/h (0 Bft) O-NO 67 0 min 0,0 UV-I 14,9 C 17,8 C 0,0 km/h (0 Bft)
13.10.2014 18:05 17,6 C 27,1 C 17,2 C 17,7 C 17,7 C 0,1 C 83 % 88 % 3 % 1008,4 hPa 0,0 l/m 0,0 km/h (0 Bft) O-NO 67 0 min 0,0 UV-I 14,7 C 17,7 C 0,0 km/h (0 Bft)
13.10.2014 18:10 17,5 C 27,1 C 17,1 C 17,5 C 17,5 C 0,0 C 84 % 88 % 0 % 1008,3 hPa 0,0 l/m 0,0 km/h (0 Bft) O-NO 67 0 min 0,0 UV-I 14,8 C 17,5 C 0,0 km/h (0 Bft)
13.10.2014 18:15 17,4 C 27,1 C 16,9 C 17,4 C 17,4 C 0,0 C 84 % 88 % 0 % 1008,3 hPa 0,0 l/m 0,0 km/h (0 Bft) O-NO 67 0 min 0,0 UV-I 14,7 C 17,4 C 0,0 km/h (0 Bft)
13.10.2014 18:20 17,2 C 27,0 C 16,8 C 17,3 C 17,3 C 0,1 C 84 % 88 % 0 % 1008,3 hPa 0,0 l/m 0,0 km/h (0 Bft) S-SW 202 0 min 0,0 UV-I 14,5 C 17,3 C 0,0 km/h (0 Bft)
13.10.2014 18:25 17,2 C 27,1 C 16,8 C 17,2 C 17,2 C 0,0 C 84 % 88 % 0 % 1008,3 hPa 0,0 l/m 0,0 km/h (0 Bft) O 90 0 min 0,0 UV-I 14,5 C 17,2 C 0,0 km/h (0 Bft)
13.10.2014 18:30 17,1 C 27,1 C 16,8 C 17,1 C 17,1 C 0,0 C 85 % 88 % 0 % 1008,1 hPa 0,0 l/m 0,0 km/h (0 Bft) W 270 0 min 0,0 UV-I 14,6 C 17,1 C 0,0 km/h (0 Bft)
13.10.2014 18:35 16,9 C 27,1 C 16,7 C 17,1 C 17,1 C 0,2 C 85 % 88 % 0 % 1008,1 hPa 0,0 l/m 0,0 km/h (0 Bft) S-SW 202 0 min 0,0 UV-I 14,4 C 17,1 C 0,0 km/h (0 Bft)
13.10.2014 18:41 16,8 C 27,1 C 16,7 C 17,0 C 17,0 C 0,2 C 85 % 89 % 0 % 1008,1 hPa 0,0 l/m 0,0 km/h (0 Bft) N 0 0 min 0,0 UV-I 14,3 C 17,0 C 0,0 km/h (0 Bft)
13.10.2014 18:45 16,8 C 27,1 C 16,6 C 16,9 C 16,9 C 0,1 C 85 % 89 % 0 % 1008,1 hPa 0,0 l/m 0,0 km/h (0 Bft) W-SW 247 0 min 0,0 UV-I 14,3 C 16,9 C 0,0 km/h (0 Bft)
13.10.2014 18:50 16,7 C 27,2 C 16,5 C 16,7 C 16,7 C 0,0 C 86 % 89 % 0 % 1008,2 hPa 0,0 l/m 0,5 km/h (0 Bft) O-NO 67 0 min 0,0 UV-I 14,3 C 16,7 C 2,3 km/h (1 Bft)
13.10.2014 18:55 16,4 C 27,3 C 16,5 C 16,7 C 16,7 C 0,3 C 86 % 89 % 0 % 1008,2 hPa 0,0 l/m 1,0 km/h (0 Bft) O-SO 112 0 min 0,0 UV-I 14,1 C 16,7 C 0,0 km/h (0 Bft)
13.10.2014 19:00 16,3 C 27,3 C 16,4 C 16,6 C 16,6 C 0,3 C 86 % 89 % 0 % 1008,2 hPa 0,0 l/m 0,6 km/h (0 Bft) O-NO 67 0 min 0,0 UV-I 14,0 C 16,6 C 0,0 km/h (0 Bft)
13.10.2014 19:05 16,1 C 27,2 C 16,4 C 16,6 C 16,6 C 0,5 C 86 % 89 % 0 % 1008,2 hPa 0,0 l/m 0,0 km/h (0 Bft) W 270 0 min 0,0 UV-I 13,8 C 16,6 C 0,0 km/h (0 Bft)
13.10.2014 19:10 16,0 C 27,2 C 16,2 C 16,4 C 16,4 C 0,4 C 86 % 89 % 0 % 1008,2 hPa 0,0 l/m 0,2 km/h (0 Bft) W 270 0 min 0,0 UV-I 13,7 C 16,4 C 0,0 km/h (0 Bft)
13.10.2014 19:15 16,0 C 27,2 C 16,3 C 16,2 C 16,2 C 0,2 C 86 % 89 % 0 % 1008,2 hPa 0,0 l/m 0,2 km/h (0 Bft) N-NW 337 0 min 0,0 UV-I 13,7 C 16,2 C 0,0 km/h (0 Bft)
13.10.2014 19:20 15,9 C 27,3 C 16,1 C 16,1 C 16,1 C 0,2 C 87 % 89 % 0 % 1008,2 hPa 0,0 l/m 0,0 km/h (0 Bft) W-NW 292 0 min 0,0 UV-I 13,7 C 16,1 C 0,0 km/h (0 Bft)
13.10.2014 19:25 15,9 C 27,3 C 16,0 C 16,0 C 16,0 C 0,1 C 87 % 89 % 0 % 1008,2 hPa 0,0 l/m 0,0 km/h (0 Bft) W-SW 247 0 min 0,0 UV-I 13,7 C 16,0 C 0,0 km/h (0 Bft)
13.10.2014 19:30 15,7 C 27,3 C 16,0 C 15,9 C 15,9 C 0,2 C 87 % 89 % 0 % 1008,5 hPa 0,0 l/m 0,0 km/h (0 Bft) O 90 0 min 0,0 UV-I 13,5 C 15,9 C 0,0 km/h (0 Bft)
13.10.2014 19:35 15,6 C 27,3 C 15,9 C 15,8 C 15,8 C 0,2 C 87 % 89 % 0 % 1008,5 hPa 0,0 l/m 0,0 km/h (0 Bft) O-SO 112 0 min 0,0 UV-I 13,4 C 15,8 C 0,0 km/h (0 Bft)
13.10.2014 19:40 15,5 C 27,4 C 15,7 C 15,7 C 15,7 C 0,2 C 87 % 89 % 0 % 1008,5 hPa 0,0 l/m 0,0 km/h (0 Bft) O 90 0 min 0,0 UV-I 13,3 C 15,7 C 0,0 km/h (0 Bft)
13.10.2014 19:45 15,3 C 27,3 C 15,7 C 15,7 C 15,7 C 0,4 C 87 % 89 % 0 % 1008,5 hPa 0,0 l/m 0,0 km/h (0 Bft) O 90 0 min 0,0 UV-I 13,1 C 15,7 C 0,0 km/h (0 Bft)
13.10.2014 19:50 15,2 C 27,4 C 15,6 C 15,6 C 15,6 C 0,4 C 87 % 89 % 0 % 1008,3 hPa 0,0 l/m 0,0 km/h (0 Bft) O-NO 67 0 min 0,0 UV-I 13,0 C 15,6 C 0,0 km/h (0 Bft)
13.10.2014 19:55 15,3 C 27,4 C 15,6 C 15,5 C 15,5 C 0,2 C 88 % 89 % 0 % 1008,3 hPa 0,0 l/m 0,0 km/h (0 Bft) O-NO 67 0 min 0,0 UV-I 13,3 C 15,5 C 0,0 km/h (0 Bft)
13.10.2014 20:00 15,1 C 27,4 C 15,4 C 15,5 C 15,5 C 0,4 C 88 % 89 % 0 % 1008,3 hPa 0,0 l/m 0,0 km/h (0 Bft) O-NO 67 0 min 0,0 UV-I 13,1 C 15,5 C 0,0 km/h (0 Bft)
13.10.2014 20:05 15,1 C 27,4 C 15,4 C 15,5 C 15,5 C 0,4 C 88 % 90 % 0 % 1008,3 hPa 0,0 l/m 0,0 km/h (0 Bft) N-NW 337 0 min 0,0 UV-I 13,1 C 15,5 C 0,0 km/h (0 Bft)
13.10.2014 20:10 15,1 C 27,4 C 15,5 C 15,5 C 15,5 C 0,4 C 88 % 90 % 0 % 1008,3 hPa 0,0 l/m 0,0 km/h (0 Bft) NO 45 0 min 0,0 UV-I 13,1 C 15,5 C 0,0 km/h (0 Bft)
13.10.2014 20:15 15,1 C 27,4 C 15,4 C 15,5 C 15,5 C 0,4 C 88 % 90 % 0 % 1008,3 hPa 0,0 l/m 0,0 km/h (0 Bft) SW 225 0 min 0,0 UV-I 13,1 C 15,5 C 0,0 km/h (0 Bft)
13.10.2014 20:20 14,9 C 27,4 C 15,5 C 15,5 C 15,5 C 0,6 C 88 % 90 % 0 % 1008,3 hPa 0,0 l/m 0,0 km/h (0 Bft) O 90 0 min 0,0 UV-I 12,9 C 15,5 C 0,0 km/h (0 Bft)
13.10.2014 20:25 14,9 C 27,4 C 15,5 C 15,5 C 15,5 C 0,6 C 88 % 90 % 0 % 1008,3 hPa 0,0 l/m 0,0 km/h (0 Bft) O-NO 67 0 min 0,0 UV-I 12,9 C 15,5 C 0,0 km/h (0 Bft)
13.10.2014 20:30 14,8 C 27,5 C 15,3 C 15,3 C 15,3 C 0,5 C 88 % 90 % 0 % 1008,5 hPa 0,0 l/m 0,0 km/h (0 Bft) O-NO 67 0 min 0,0 UV-I 12,8 C 15,3 C 1,6 km/h (1 Bft)
13.10.2014 20:35 14,7 C 27,5 C 15,3 C 15,3 C 15,3 C 0,6 C 88 % 90 % 0 % 1008,5 hPa 0,0 l/m 0,0 km/h (0 Bft) O 90 0 min 0,0 UV-I 12,7 C 15,3 C 0,0 km/h (0 Bft)
13.10.2014 20:40 14,6 C 27,5 C 15,2 C 15,2 C 15,2 C 0,6 C 89 % 90 % 0 % 1008,5 hPa 0,0 l/m 0,0 km/h (0 Bft) O-NO 67 0 min 0,0 UV-I 12,8 C 15,2 C 0,0 km/h (0 Bft)
13.10.2014 20:45 14,7 C 27,5 C 15,2 C 15,1 C 15,1 C 0,4 C 89 % 90 % 0 % 1008,5 hPa 0,0 l/m 0,0 km/h (0 Bft) O-NO 67 0 min 0,0 UV-I 12,9 C 15,1 C 0,0 km/h (0 Bft)
13.10.2014 20:50 14,6 C 27,5 C 15,3 C 15,1 C 15,1 C 0,5 C 89 % 90 % 0 % 1008,2 hPa 0,0 l/m 0,0 km/h (0 Bft) W-SW 247 0 min 0,0 UV-I 12,8 C 15,1 C 0,0 km/h (0 Bft)
13.10.2014 20:55 14,5 C 27,5 C 15,2 C 15,0 C 15,0 C 0,5 C 89 % 90 % 0 % 1008,2 hPa 0,0 l/m 0,0 km/h (0 Bft) S 180 0 min 0,0 UV-I 12,7 C 15,0 C 0,0 km/h (0 Bft)
13.10.2014 21:00 14,4 C 27,5 C 15,1 C 14,9 C 14,9 C 0,5 C 89 % 90 % 0 % 1008,2 hPa 0,0 l/m 0,0 km/h (0 Bft) N-NO 22 0 min 0,0 UV-I 12,6 C 14,9 C 0,0 km/h (0 Bft)
13.10.2014 21:05 14,5 C 27,5 C 14,9 C 14,8 C 14,8 C 0,3 C 89 % 90 % 0 % 1008,2 hPa 0,0 l/m 0,0 km/h (0 Bft) SW 225 0 min 0,0 UV-I 12,7 C 14,8 C 0,0 km/h (0 Bft)
13.10.2014 21:10 14,3 C 27,5 C 14,8 C 14,7 C 14,7 C 0,4 C 89 % 90 % 0 % 1008,6 hPa 0,0 l/m 0,0 km/h (0 Bft) O 90 0 min 0,0 UV-I 12,5 C 14,7 C 0,0 km/h (0 Bft)
13.10.2014 21:15 14,3 C 27,5 C 14,8 C 14,6 C 14,6 C 0,3 C 89 % 90 % 0 % 1008,6 hPa 0,0 l/m 0,0 km/h (0 Bft) O 90 0 min 0,0 UV-I 12,5 C 14,6 C 0,0 km/h (0 Bft)
13.10.2014 21:20 14,3 C 27,5 C 14,7 C 14,6 C 14,6 C 0,3 C 89 % 90 % 0 % 1008,6 hPa 0,0 l/m 0,0 km/h (0 Bft) O-NO 67 0 min 0,0 UV-I 12,5 C 14,6 C 0,0 km/h (0 Bft)
13.10.2014 21:25 14,1 C 27,5 C 14,7 C 14,6 C 14,6 C 0,5 C 89 % 90 % 0 % 1008,6 hPa 0,0 l/m 0,0 km/h (0 Bft) O 90 0 min 0,0 UV-I 12,3 C 14,6 C 0,0 km/h (0 Bft)
13.10.2014 21:30 14,0 C 27,5 C 14,6 C 14,6 C 14,6 C 0,6 C 89 % 90 % 0 % 1008,4 hPa 0,0 l/m 0,2 km/h (0 Bft) O-NO 67 0 min 0,0 UV-I 12,2 C 14,6 C 0,0 km/h (0 Bft)
13.10.2014 21:35 14,0 C 27,5 C 14,6 C 14,6 C 14,6 C 0,6 C 89 % 90 % 0 % 1008,4 hPa 0,0 l/m 0,2 km/h (0 Bft) O 90 0 min 0,0 UV-I 12,2 C 14,6 C 0,0 km/h (0 Bft)
13.10.2014 21:41 14,1 C 27,5 C 14,7 C 14,6 C 14,6 C 0,5 C 89 % 90 % 0 % 1008,4 hPa 0,0 l/m 0,0 km/h (0 Bft) N 0 0 min 0,0 UV-I 12,3 C 14,6 C 0,0 km/h (0 Bft)
13.10.2014 21:45 14,0 C 27,5 C 14,6 C 14,6 C 14,6 C 0,6 C 89 % 90 % 0 % 1008,4 hPa 0,0 l/m 0,0 km/h (0 Bft) O 90 0 min 0,0 UV-I 12,2 C 14,6 C 0,0 km/h (0 Bft)
13.10.2014 21:50 14,0 C 27,5 C 14,7 C 14,7 C 14,7 C 0,7 C 90 % 90 % 0 % 1008,5 hPa 0,0 l/m 0,0 km/h (0 Bft) O 90 0 min 0,0 UV-I 12,4 C 14,7 C 0,0 km/h (0 Bft)
13.10.2014 21:55 14,1 C 27,5 C 14,7 C 14,7 C 14,7 C 0,6 C 90 % 90 % 0 % 1008,5 hPa 0,0 l/m 0,0 km/h (0 Bft) O 90 0 min 0,0 UV-I 12,5 C 14,7 C 0,0 km/h (0 Bft)
13.10.2014 22:00 14,1 C 27,5 C 14,7 C 14,7 C 14,7 C 0,6 C 90 % 90 % 0 % 1008,5 hPa 0,0 l/m 0,0 km/h (0 Bft) N-NW 337 0 min 0,0 UV-I 12,5 C 14,7 C 0,0 km/h (0 Bft)
13.10.2014 22:05 14,0 C 27,5 C 14,7 C 14,8 C 14,8 C 0,8 C 90 % 90 % 0 % 1008,5 hPa 0,0 l/m 0,0 km/h (0 Bft) W 270 0 min 0,0 UV-I 12,4 C 14,8 C 0,0 km/h (0 Bft)
13.10.2014 22:10 14,1 C 27,5 C 14,7 C 14,8 C 14,8 C 0,7 C 90 % 90 % 0 % 1008,6 hPa 0,0 l/m 0,0 km/h (0 Bft) N-NO 22 0 min 0,0 UV-I 12,5 C 14,8 C 0,0 km/h (0 Bft)
13.10.2014 22:15 14,0 C 27,5 C 14,8 C 14,8 C 14,8 C 0,8 C 90 % 90 % 0 % 1008,6 hPa 0,0 l/m 0,0 km/h (0 Bft) O-NO 67 0 min 0,0 UV-I 12,4 C 14,8 C 0,0 km/h (0 Bft)
13.10.2014 22:20 14,0 C 27,5 C 14,8 C 14,8 C 14,8 C 0,8 C 90 % 90 % 0 % 1008,6 hPa 0,0 l/m 0,0 km/h (0 Bft) O 90 0 min 0,0 UV-I 12,4 C 14,8 C 0,0 km/h (0 Bft)
13.10.2014 22:25 14,0 C 27,5 C 14,8 C 14,8 C 14,8 C 0,8 C 90 % 90 % 0 % 1008,6 hPa 0,0 l/m 0,0 km/h (0 Bft) O-NO 67 0 min 0,0 UV-I 12,4 C 14,8 C 0,0 km/h (0 Bft)
13.10.2014 22:30 14,0 C 27,5 C 14,8 C 14,8 C 14,8 C 0,8 C 90 % 90 % 0 % 1008,3 hPa 0,0 l/m 0,0 km/h (0 Bft) NW 315 0 min 0,0 UV-I 12,4 C 14,8 C 0,0 km/h (0 Bft)
13.10.2014 22:35 14,0 C 27,5 C 14,8 C 14,8 C 14,8 C 0,8 C 90 % 90 % 0 % 1008,3 hPa 0,0 l/m 0,0 km/h (0 Bft) O-NO 67 0 min 0,0 UV-I 12,4 C 14,8 C 0,0 km/h (0 Bft)
13.10.2014 22:40 14,0 C 27,5 C 14,7 C 14,8 C 14,8 C 0,8 C 90 % 90 % 0 % 1008,3 hPa 0,0 l/m 0,0 km/h (0 Bft) O-NO 67 0 min 0,0 UV-I 12,4 C 14,8 C 0,0 km/h (0 Bft)
13.10.2014 22:45 14,1 C 27,5 C 14,7 C 14,8 C 14,8 C 0,7 C 90 % 90 % 0 % 1008,3 hPa 0,0 l/m 0,0 km/h (0 Bft) O-NO 67 0 min 0,0 UV-I 12,5 C 14,8 C 0,0 km/h (0 Bft)
13.10.2014 22:50 14,0 C 27,5 C 14,7 C 14,8 C 14,8 C 0,8 C 90 % 90 % 0 % 1008,4 hPa 0,0 l/m 0,0 km/h (0 Bft) O 90 0 min 0,0 UV-I 12,4 C 14,8 C 0,0 km/h (0 Bft)
13.10.2014 22:55 14,0 C 27,5 C 14,7 C 14,8 C 14,8 C 0,8 C 91 % 90 % 0 % 1008,4 hPa 0,0 l/m 0,0 km/h (0 Bft) O-NO 67 0 min 0,0 UV-I 12,6 C 14,8 C 0,0 km/h (0 Bft)
13.10.2014 23:00 14,0 C 27,5 C 14,7 C 14,8 C 14,8 C 0,8 C 90 % 90 % 0 % 1008,4 hPa 0,0 l/m 0,0 km/h (0 Bft) O-NO 67 0 min 0,0 UV-I 12,4 C 14,8 C 0,0 km/h (0 Bft)
13.10.2014 23:05 14,0 C 27,5 C 14,7 C 14,7 C 14,7 C 0,7 C 91 % 90 % 0 % 1008,4 hPa 0,0 l/m 0,0 km/h (0 Bft) O 90 0 min 0,0 UV-I 12,6 C 14,7 C 0,0 km/h (0 Bft)
13.10.2014 23:10 14,0 C 27,5 C 14,6 C 14,7 C 14,7 C 0,7 C 91 % 90 % 0 % 1008,2 hPa 0,0 l/m 0,0 km/h (0 Bft) O-NO 67 0 min 0,0 UV-I 12,6 C 14,7 C 0,0 km/h (0 Bft)
13.10.2014 23:15 14,0 C 27,5 C 14,7 C 14,7 C 14,7 C 0,7 C 91 % 90 % 0 % 1008,2 hPa 0,0 l/m 0,0 km/h (0 Bft) O-SO 112 0 min 0,0 UV-I 12,6 C 14,7 C 0,0 km/h (0 Bft)
13.10.2014 23:20 14,0 C 27,5 C 14,7 C 14,7 C 14,7 C 0,7 C 91 % 90 % 0 % 1008,2 hPa 0,0 l/m 0,0 km/h (0 Bft) O-NO 67 0 min 0,0 UV-I 12,6 C 14,7 C 0,0 km/h (0 Bft)
13.10.2014 23:25 13,9 C 27,5 C 14,7 C 14,6 C 14,6 C 0,7 C 91 % 90 % 0 % 1008,2 hPa 0,0 l/m 0,0 km/h (0 Bft) O-NO 67 0 min 0,0 UV-I 12,5 C 14,6 C 0,0 km/h (0 Bft)
13.10.2014 23:30 13,9 C 27,5 C 14,5 C 14,6 C 14,6 C 0,7 C 91 % 90 % 0 % 1008,1 hPa 0,0 l/m 0,0 km/h (0 Bft) N-NW 337 0 min 0,0 UV-I 12,5 C 14,6 C 0,0 km/h (0 Bft)
13.10.2014 23:35 13,9 C 27,5 C 14,7 C 14,6 C 14,6 C 0,7 C 91 % 90 % 0 % 1008,1 hPa 0,0 l/m 0,0 km/h (0 Bft) N 360 0 min 0,0 UV-I 12,5 C 14,6 C 0,0 km/h (0 Bft)
13.10.2014 23:40 13,9 C 27,5 C 14,7 C 14,6 C 14,6 C 0,7 C 91 % 90 % 0 % 1008,1 hPa 0,0 l/m 0,0 km/h (0 Bft) O-NO 67 0 min 0,0 UV-I 12,5 C 14,6 C 0,0 km/h (0 Bft)
13.10.2014 23:45 13,9 C 27,5 C 14,6 C 14,6 C 14,6 C 0,7 C 91 % 90 % 0 % 1008,1 hPa 0,0 l/m 0,0 km/h (0 Bft) O-SO 112 0 min 0,0 UV-I 12,5 C 14,6 C 0,0 km/h (0 Bft)
13.10.2014 23:50 13,9 C 27,5 C 14,6 C 14,6 C 14,6 C 0,7 C 91 % 90 % 0 % 1008,1 hPa 0,0 l/m 0,0 km/h (0 Bft) O-SO 112 0 min 0,0 UV-I 12,5 C 14,6 C 0,0 km/h (0 Bft)
13.10.2014 23:55 13,9 C 27,5 C 14,6 C 14,6 C 14,6 C 0,7 C 91 % 90 % 0 % 1008,1 hPa 0,0 l/m 0,0 km/h (0 Bft) O 90 0 min 0,0 UV-I 12,5 C 14,6 C 0,0 km/h (0 Bft)
_ Min-Zeit 07:55 11:45 08:00 07:55 07:55 02:15 14:40 14:40 00:00 18:30 - 00:30 - - - 00:00 07:55 07:55 00:20
Minimum _ 8,8 C 25,9 C 9,9 C 9,2 C 9,2 C 0,0 C 74 % 81 % 0 % 1008,1 hPa - 0,0 km/h (0 Bft) - - - 0,0 UV-I 7,3 C 9,2 C 0,0 km/h (0 Bft)
_ Max-Zeit 14:50 20:30 14:45 13:20 13:20 11:15 09:50 05:40 10:40 00:00 00:00 00:00 - - 12:42 00:00 16:40 13:20 14:35
Maximum _ 20,7 C 27,5 C 19,3 C 23,3 C 23,3 C 5,4 C 93 % 91 % 100 % 1011,8 hPa 0,0 l/m 3,9 km/h
O (1 Bft)
- - 7 min 0,0 UV-I 16,0 C 23,3 C 10,0 km/h
W (2 Bft)
Durchschnitt _ 14,2 C 26,7 C 14,6 C 15,4 C 15,4 C 1,1 C 87 % 88 % 22 % 1009,2 hPa #0,0 l/m 0,3 km/h (0 Bft) O-NO - #2:25 h 0,0 UV-I 12,0 C 15,4 C 0,5 km/h (0 Bft)
2014 www.wetterstation-wechselburg.de